createdAt,value
2022-10-23T00:01:50.525Z,101349.09
2022-10-23T00:04:21.325Z,101356.34
2022-10-23T00:06:50.735Z,101353.81
2022-10-23T00:09:22.596Z,101348.88
2022-10-23T00:11:51.795Z,101372.72
2022-10-23T00:14:23.412Z,101369.72
2022-10-23T00:16:52.158Z,101368.81
2022-10-23T00:19:21.016Z,101366.25
2022-10-23T00:21:49.401Z,101359.63
2022-10-23T00:24:17.480Z,101363.41
2022-10-23T00:26:45.587Z,101346.91
2022-10-23T00:29:13.623Z,101359.06
2022-10-23T00:31:41.552Z,101356.81
2022-10-23T00:34:09.438Z,101347.00
2022-10-23T00:36:38.122Z,101338.97
2022-10-23T00:39:07.189Z,101327.28
2022-10-23T00:41:35.310Z,101327.66
2022-10-23T00:44:11.525Z,101316.91
2022-10-23T00:46:41.205Z,101312.03
2022-10-23T00:51:45.694Z,101315.56
2022-10-23T00:54:24.351Z,101312.63
2022-10-23T00:56:56.840Z,101308.88
2022-10-23T00:59:24.082Z,101312.19
2022-10-23T01:01:52.669Z,101326.47
2022-10-23T01:04:20.914Z,101330.28
2022-10-23T01:07:01.864Z,101328.47
2022-10-23T01:09:41.241Z,101338.44
2022-10-23T01:12:49.917Z,101323.66
2022-10-23T01:15:49.900Z,101337.56
2022-10-23T01:18:30.844Z,101337.84
2022-10-23T01:21:27.440Z,101332.44
2022-10-23T01:24:26.580Z,101325.00
2022-10-23T01:27:19.155Z,101324.34
2022-10-23T01:29:59.521Z,101333.50
2022-10-23T01:32:40.921Z,101336.34
2022-10-23T01:35:26.281Z,101333.66
2022-10-23T01:38:35.191Z,101322.94
2022-10-23T01:41:21.714Z,101313.09
2022-10-23T01:44:13.887Z,101309.56
2022-10-23T01:46:53.584Z,101311.06
2022-10-23T01:49:27.586Z,101312.56
2022-10-23T01:52:08.390Z,101301.94
2022-10-23T01:54:46.962Z,101306.28
2022-10-23T01:57:18.218Z,101309.16
2022-10-23T01:59:53.437Z,101301.25
2022-10-23T02:02:27.478Z,101302.69
2022-10-23T02:05:07.561Z,101298.72
2022-10-23T02:07:36.238Z,101300.13
2022-10-23T02:10:08.931Z,101287.47
2022-10-23T02:12:36.653Z,101281.25
2022-10-23T02:15:19.878Z,101302.03
2022-10-23T02:18:41.135Z,101315.06
2022-10-23T02:21:32.362Z,101304.16
2022-10-23T02:24:14.031Z,101296.69
2022-10-23T02:27:02.884Z,101292.97
2022-10-23T02:29:45.317Z,101288.84
2022-10-23T02:32:16.748Z,101290.25
2022-10-23T02:34:47.214Z,101287.75
2022-10-23T02:37:18.589Z,101289.25
2022-10-23T02:39:56.978Z,101290.31
2022-10-23T02:42:48.730Z,101286.44
2022-10-23T02:45:52.268Z,101271.50
2022-10-23T02:48:26.946Z,101261.19
2022-10-23T02:51:49.916Z,101257.97
2022-10-23T02:54:44.635Z,101275.34
2022-10-23T02:57:29.312Z,101286.34
2022-10-23T03:00:12.204Z,101285.88
2022-10-23T03:03:05.646Z,101281.25
2022-10-23T03:05:37.159Z,101298.75
2022-10-23T03:08:13.529Z,101289.72
2022-10-23T03:10:43.718Z,101300.22
2022-10-23T03:13:12.260Z,101305.28
2022-10-23T03:15:42.559Z,101300.03
2022-10-23T03:18:13.315Z,101303.75
2022-10-23T03:20:47.457Z,101299.41
2022-10-23T03:23:15.946Z,101300.25
2022-10-23T03:25:43.722Z,101295.47
2022-10-23T03:28:24.025Z,101289.88
2022-10-23T03:30:51.569Z,101275.13
2022-10-23T03:33:20.256Z,101277.81
2022-10-23T03:36:06.500Z,101264.72
2022-10-23T03:38:38.304Z,101265.31
2022-10-23T03:41:07.595Z,101261.31
2022-10-23T03:43:35.395Z,101255.75
2022-10-23T03:46:03.500Z,101257.19
2022-10-23T03:48:32.608Z,101258.44
2022-10-23T03:51:01.497Z,101259.81
2022-10-23T03:53:32.601Z,101251.75
2022-10-23T03:56:03.025Z,101269.72
2022-10-23T03:58:32.014Z,101266.78
2022-10-23T04:01:01.054Z,101271.09
2022-10-23T04:03:28.979Z,101275.63
2022-10-23T04:05:57.102Z,101273.38
2022-10-23T04:08:25.012Z,101291.00
2022-10-23T04:10:57.845Z,101280.25
2022-10-23T04:13:35.483Z,101285.88
2022-10-23T04:16:03.557Z,101279.44
2022-10-23T04:18:31.180Z,101271.59
2022-10-23T04:20:59.812Z,101283.19
2022-10-23T04:23:27.774Z,101290.34
2022-10-23T04:25:58.568Z,101285.44
2022-10-23T04:28:27.776Z,101290.19
2022-10-23T04:30:55.843Z,101286.72
2022-10-23T04:33:24.952Z,101297.94
2022-10-23T04:35:53.255Z,101299.69
2022-10-23T04:38:21.493Z,101288.91
2022-10-23T04:40:51.068Z,101285.56
2022-10-23T04:43:22.567Z,101285.91
2022-10-23T04:45:50.946Z,101292.06
2022-10-23T04:48:19.367Z,101297.66
2022-10-23T04:51:16.345Z,101299.69
2022-10-23T04:54:06.559Z,101296.00
2022-10-23T04:57:04.263Z,101285.63
2022-10-23T04:59:48.073Z,101291.00
2022-10-23T05:02:16.355Z,101286.38
2022-10-23T05:04:44.662Z,101289.69
2022-10-23T05:07:30.989Z,101288.53
2022-10-23T05:10:07.905Z,101307.09
2022-10-23T05:12:45.898Z,101302.28
2022-10-23T05:15:13.890Z,101304.97
2022-10-23T05:17:45.011Z,101305.59
2022-10-23T05:20:19.079Z,101310.16
2022-10-23T05:22:51.091Z,101305.38
2022-10-23T05:25:21.801Z,101295.41
2022-10-23T05:27:54.175Z,101298.81
2022-10-23T05:30:22.997Z,101304.53
2022-10-23T05:32:51.057Z,101307.63
2022-10-23T05:35:24.333Z,101297.06
2022-10-23T05:37:55.255Z,101303.66
2022-10-23T05:40:26.255Z,101298.44
2022-10-23T05:43:00.339Z,101293.59
2022-10-23T05:45:46.441Z,101295.19
2022-10-23T05:48:35.621Z,101295.63
2022-10-23T05:51:12.170Z,101301.78
2022-10-23T05:54:15.343Z,101305.28
2022-10-23T05:57:00.077Z,101294.31
2022-10-23T05:59:43.651Z,101291.97
2022-10-23T06:02:34.988Z,101289.06
2022-10-23T06:05:12.252Z,101297.31
2022-10-23T06:07:45.838Z,101304.41
2022-10-23T06:10:14.046Z,101296.50
2022-10-23T06:12:48.327Z,101291.09
2022-10-23T06:15:21.294Z,101301.66
2022-10-23T06:18:15.042Z,101305.16
2022-10-23T06:20:57.626Z,101309.63
2022-10-23T06:23:38.699Z,101311.28
2022-10-23T06:26:16.833Z,101313.16
2022-10-23T06:28:57.672Z,101312.88
2022-10-23T06:31:35.444Z,101314.44
2022-10-23T06:34:06.603Z,101312.94
2022-10-23T06:36:34.285Z,101307.63
2022-10-23T06:39:19.969Z,101313.38
2022-10-23T06:42:07.961Z,101312.56
2022-10-23T06:44:53.908Z,101329.44
2022-10-23T06:47:40.215Z,101337.78
2022-10-23T06:50:31.527Z,101331.31
2022-10-23T06:53:05.834Z,101328.78
2022-10-23T06:55:35.114Z,101319.34
2022-10-23T06:58:03.581Z,101317.28
2022-10-23T07:00:31.666Z,101325.25
2022-10-23T07:03:00.665Z,101335.72
2022-10-23T07:05:28.329Z,101338.81
2022-10-23T07:07:56.370Z,101332.81
2022-10-23T07:10:29.008Z,101337.06
2022-10-23T07:13:01.660Z,101354.16
2022-10-23T07:15:32.133Z,101355.31
2022-10-23T07:18:00.368Z,101353.22
2022-10-23T07:20:40.652Z,101346.84
2022-10-23T07:23:09.906Z,101341.28
2022-10-23T07:25:40.292Z,101345.75
2022-10-23T07:28:12.048Z,101349.53
2022-10-23T07:30:41.448Z,101355.97
2022-10-23T07:33:13.058Z,101357.56
2022-10-23T07:36:00.210Z,101365.50
2022-10-23T07:38:29.534Z,101349.59
2022-10-23T07:41:01.347Z,101342.31
2022-10-23T07:43:30.019Z,101333.78
2022-10-23T07:45:57.817Z,101347.06
2022-10-23T07:48:31.948Z,101352.25
2022-10-23T07:51:10.980Z,101346.03
2022-10-23T07:54:01.736Z,101368.03
2022-10-23T07:56:50.185Z,101374.16
2022-10-23T07:59:24.611Z,101371.94
2022-10-23T08:01:56.941Z,101363.06
2022-10-23T08:04:32.460Z,101347.94
2022-10-23T08:07:05.862Z,101355.19
2022-10-23T08:09:39.118Z,101342.28
2022-10-23T08:12:06.914Z,101353.44
2022-10-23T08:14:34.461Z,101376.63
2022-10-23T08:19:48.760Z,101369.75
2022-10-23T08:22:18.578Z,101373.19
2022-10-23T08:24:47.006Z,101378.75
2022-10-23T08:27:14.517Z,101358.56
2022-10-23T08:29:48.700Z,101338.41
2022-10-23T08:32:16.504Z,101348.34
2022-10-23T08:35:13.946Z,101350.00
2022-10-23T08:37:41.825Z,101365.41
2022-10-23T08:40:24.021Z,101364.38
2022-10-23T08:43:12.673Z,101357.66
2022-10-23T08:45:57.746Z,101358.25
2022-10-23T08:48:56.091Z,101356.00
2022-10-23T08:51:47.612Z,101367.03
2022-10-23T08:54:21.830Z,101375.66
2022-10-23T08:56:56.092Z,101354.59
2022-10-23T08:59:33.330Z,101371.84
2022-10-23T09:02:25.756Z,101376.16
2022-10-23T09:04:57.730Z,101384.50
2022-10-23T09:07:30.274Z,101375.06
2022-10-23T09:10:08.977Z,101385.41
2022-10-23T09:12:40.862Z,101381.41
2022-10-23T09:15:18.678Z,101391.16
2022-10-23T09:17:48.168Z,101401.19
2022-10-23T09:20:48.662Z,101402.94
2022-10-23T09:23:21.963Z,101387.50
2022-10-23T09:25:55.746Z,101379.25
2022-10-23T09:28:31.223Z,101378.75
2022-10-23T09:31:09.739Z,101389.03
2022-10-23T09:33:39.963Z,101394.28
2022-10-23T09:36:09.539Z,101386.34
2022-10-23T09:38:45.623Z,101407.06
2022-10-23T09:41:28.758Z,101397.13
2022-10-23T09:44:08.369Z,101393.44
2022-10-23T09:46:43.289Z,101390.84
2022-10-23T09:49:24.220Z,101383.09
2022-10-23T09:52:22.478Z,101374.72
2022-10-23T09:55:01.420Z,101387.38
2022-10-23T09:57:37.330Z,101403.56
2022-10-23T10:00:26.962Z,101402.84
2022-10-23T10:03:01.482Z,101401.03
2022-10-23T10:05:44.291Z,101385.25
2022-10-23T10:08:29.561Z,101388.53
2022-10-23T10:11:05.525Z,101396.16
2022-10-23T10:13:38.613Z,101402.50
2022-10-23T10:16:34.757Z,101396.03
2022-10-23T10:19:17.967Z,101415.88
2022-10-23T10:22:27.356Z,101409.94
2022-10-23T10:25:24.585Z,101407.78
2022-10-23T10:28:15.696Z,101411.09
2022-10-23T10:31:01.314Z,101415.50
2022-10-23T10:33:48.340Z,101399.06
2022-10-23T10:36:48.514Z,101388.84
2022-10-23T10:39:41.418Z,101404.16
2022-10-23T10:42:36.383Z,101401.25
2022-10-23T10:45:20.123Z,101391.28
2022-10-23T10:47:52.067Z,101401.38
2022-10-23T10:50:39.293Z,101397.44
2022-10-23T10:53:43.516Z,101389.28
2022-10-23T10:56:15.673Z,101384.66
2022-10-23T10:58:50.634Z,101377.31
2022-10-23T11:01:43.373Z,101392.81
2022-10-23T11:04:36.479Z,101392.00
2022-10-23T11:07:09.944Z,101401.53
2022-10-23T11:09:40.542Z,101395.84
2022-10-23T11:12:14.958Z,101398.66
2022-10-23T11:14:43.712Z,101398.97
2022-10-23T11:17:39.335Z,101388.38
2022-10-23T11:20:42.047Z,101381.28
2022-10-23T11:23:21.583Z,101390.16
2022-10-23T11:26:30.440Z,101393.44
2022-10-23T11:29:42.597Z,101378.00
2022-10-23T11:32:29.523Z,101385.66
2022-10-23T11:34:56.755Z,101379.63
2022-10-23T11:37:25.257Z,101376.91
2022-10-23T11:40:25.129Z,101391.34
2022-10-23T11:42:53.501Z,101382.41
2022-10-23T11:45:47.340Z,101380.31
2022-10-23T11:48:15.685Z,101372.16
2022-10-23T11:50:45.867Z,101371.97
2022-10-23T11:53:40.604Z,101362.84
2022-10-23T11:56:13.753Z,101357.63
2022-10-23T11:58:44.344Z,101351.63
2022-10-23T12:01:25.249Z,101345.31
2022-10-23T12:04:04.450Z,101340.41
2022-10-23T12:07:14.473Z,101334.09
2022-10-23T12:09:45.910Z,101328.34
2022-10-23T12:12:18.369Z,101326.59
2022-10-23T12:14:48.945Z,101324.38
2022-10-23T12:17:25.231Z,101315.19
2022-10-23T12:20:09.999Z,101316.75
2022-10-23T12:23:16.216Z,101300.38
2022-10-23T12:26:23.364Z,101301.22
2022-10-23T12:29:21.926Z,101299.00
2022-10-23T12:32:26.509Z,101300.38
2022-10-23T12:35:10.076Z,101280.91
2022-10-23T12:38:04.477Z,101288.53
2022-10-23T12:40:33.330Z,101291.09
2022-10-23T12:43:01.796Z,101290.84
2022-10-23T12:45:39.012Z,101284.16
2022-10-23T12:48:07.478Z,101285.56
2022-10-23T12:50:48.252Z,101277.66
2022-10-23T12:53:18.200Z,101271.19
2022-10-23T12:55:50.319Z,101265.50
2022-10-23T12:58:25.962Z,101250.31
2022-10-23T13:01:10.312Z,101238.94
2022-10-23T13:03:39.141Z,101231.66
2022-10-23T13:06:07.224Z,101241.09
2022-10-23T13:08:47.898Z,101240.63
2022-10-23T13:11:57.435Z,101227.03
2022-10-23T13:14:34.008Z,101227.63
2022-10-23T13:17:06.949Z,101216.97
2022-10-23T13:19:35.581Z,101211.28
2022-10-23T13:22:20.301Z,101210.28
2022-10-23T13:24:48.570Z,101209.53
2022-10-23T13:27:49.919Z,101204.97
2022-10-23T13:30:34.323Z,101199.59
2022-10-23T13:33:02.334Z,101199.06
2022-10-23T13:35:29.605Z,101186.91
2022-10-23T13:38:11.396Z,101182.88
2022-10-23T13:41:01.721Z,101178.56
2022-10-23T13:43:31.091Z,101176.41
2022-10-23T13:46:00.228Z,101166.63
2022-10-23T13:48:28.483Z,101161.72
2022-10-23T13:51:10.981Z,101158.72
2022-10-23T13:53:38.492Z,101157.94
2022-10-23T13:56:06.294Z,101155.78
2022-10-23T13:58:34.266Z,101165.00
2022-10-23T14:01:27.585Z,101157.63
2022-10-23T14:04:00.405Z,101153.00
2022-10-23T14:06:30.732Z,101153.25
2022-10-23T14:09:01.183Z,101148.63
2022-10-23T14:11:32.908Z,101148.63
2022-10-23T14:14:03.805Z,101137.19
2022-10-23T14:16:31.745Z,101140.19
2022-10-23T14:18:59.237Z,101145.34
2022-10-23T14:21:26.587Z,101145.38
2022-10-23T14:23:54.398Z,101148.59
2022-10-23T14:26:24.908Z,101143.69
2022-10-23T14:29:02.294Z,101145.56
2022-10-23T14:31:34.511Z,101145.53
2022-10-23T14:34:02.764Z,101142.81
2022-10-23T14:36:38.574Z,101137.63
2022-10-23T14:39:21.894Z,101139.25
2022-10-23T14:41:49.162Z,101140.06
2022-10-23T14:44:16.442Z,101149.84
2022-10-23T14:46:44.244Z,101137.31
2022-10-23T14:49:11.447Z,101144.94
2022-10-23T14:51:38.819Z,101144.69
2022-10-23T14:54:07.844Z,101147.66
2022-10-23T14:56:38.058Z,101142.75
2022-10-23T14:59:06.896Z,101141.59
2022-10-23T15:01:41.239Z,101135.66
2022-10-23T15:04:14.857Z,101139.16
2022-10-23T15:06:52.620Z,101127.78
2022-10-23T15:09:20.502Z,101134.34
2022-10-23T15:11:51.992Z,101139.25
2022-10-23T15:14:30.079Z,101147.97
2022-10-23T15:16:57.317Z,101155.34
2022-10-23T15:19:26.426Z,101156.44
2022-10-23T15:21:55.092Z,101155.06
2022-10-23T15:24:22.407Z,101156.94
2022-10-23T15:26:52.470Z,101156.94
2022-10-23T15:29:20.536Z,101154.50
2022-10-23T15:32:00.189Z,101157.22
2022-10-23T15:34:29.906Z,101162.63
2022-10-23T15:37:07.389Z,101169.16
2022-10-23T15:39:43.184Z,101161.53
2022-10-23T15:42:11.297Z,101155.75
2022-10-23T15:44:40.946Z,101152.72
2022-10-23T15:47:08.506Z,101147.00
2022-10-23T15:49:48.447Z,101148.09
2022-10-23T15:52:16.013Z,101139.38
2022-10-23T15:54:43.577Z,101135.28
2022-10-23T15:57:11.230Z,101148.03
2022-10-23T15:59:38.480Z,101139.09
2022-10-23T16:02:06.022Z,101134.19
2022-10-23T16:04:34.453Z,101121.63
2022-10-23T16:07:01.961Z,101120.50
2022-10-23T16:09:31.488Z,101127.25
2022-10-23T16:12:07.401Z,101133.19
2022-10-23T16:14:35.701Z,101139.69
2022-10-23T16:17:03.066Z,101134.41
2022-10-23T16:19:30.326Z,101138.97
2022-10-23T16:21:57.494Z,101128.66
2022-10-23T16:24:26.368Z,101125.56
2022-10-23T16:26:58.310Z,101126.38
2022-10-23T16:29:31.298Z,101139.59
2022-10-23T16:32:07.547Z,101141.25
2022-10-23T16:34:36.451Z,101147.19
2022-10-23T16:37:03.978Z,101148.75
2022-10-23T16:39:53.863Z,101141.94
2022-10-23T16:42:41.121Z,101134.03
2022-10-23T16:45:37.921Z,101150.25
2022-10-23T16:48:15.257Z,101169.19
2022-10-23T16:50:42.657Z,101165.09
2022-10-23T16:53:13.142Z,101165.34
2022-10-23T16:55:41.369Z,101171.31
2022-10-23T16:58:09.322Z,101177.53
2022-10-23T17:00:36.611Z,101187.03
2022-10-23T17:03:05.496Z,101193.00
2022-10-23T17:05:36.296Z,101195.41
2022-10-23T17:08:04.240Z,101199.16
2022-10-23T17:10:31.793Z,101206.16
2022-10-23T17:12:59.020Z,101202.84
2022-10-23T17:15:26.360Z,101209.38
2022-10-23T17:17:58.840Z,101211.75
2022-10-23T17:20:29.456Z,101216.63
2022-10-23T17:22:57.493Z,101227.47
2022-10-23T17:25:26.929Z,101221.81
2022-10-23T17:28:00.989Z,101223.13
2022-10-23T17:30:28.956Z,101227.47
2022-10-23T17:33:01.917Z,101222.75
2022-10-23T17:35:35.053Z,101227.03
2022-10-23T17:38:19.285Z,101228.69
2022-10-23T17:40:52.772Z,101230.34
2022-10-23T17:43:20.272Z,101237.97
2022-10-23T17:45:54.394Z,101245.06
2022-10-23T17:48:32.290Z,101243.41
2022-10-23T17:51:23.393Z,101246.22
2022-10-23T17:53:56.081Z,101249.19
2022-10-23T17:56:26.451Z,101245.97
2022-10-23T17:58:57.871Z,101243.25
2022-10-23T18:01:30.253Z,101242.19
2022-10-23T18:04:12.366Z,101235.13
2022-10-23T18:06:59.009Z,101238.34
2022-10-23T18:09:38.382Z,101247.28
2022-10-23T18:12:07.275Z,101254.38
2022-10-23T18:14:52.476Z,101259.34
2022-10-23T18:17:19.962Z,101269.91
2022-10-23T18:19:58.366Z,101280.50
2022-10-23T18:22:31.155Z,101274.47
2022-10-23T18:25:03.140Z,101270.41
2022-10-23T18:27:31.010Z,101264.41
2022-10-23T18:30:02.077Z,101269.00
2022-10-23T18:32:30.395Z,101264.13
2022-10-23T18:35:01.556Z,101266.84
2022-10-23T18:37:40.598Z,101270.63
2022-10-23T18:40:19.445Z,101270.06
2022-10-23T18:42:58.698Z,101265.44
2022-10-23T18:46:00.285Z,101258.16
2022-10-23T18:48:35.742Z,101273.84
2022-10-23T18:51:10.309Z,101271.38
2022-10-23T18:53:39.457Z,101267.88
2022-10-23T18:56:09.266Z,101272.44
2022-10-23T18:58:38.692Z,101261.28
2022-10-23T19:01:10.618Z,101266.72
2022-10-23T19:09:40.871Z,101265.56
2022-10-23T19:12:10.180Z,101268.78
2022-10-23T19:14:47.318Z,101276.09
2022-10-23T19:17:33.290Z,101270.66
2022-10-23T19:20:07.483Z,101270.34
2022-10-23T19:22:36.463Z,101264.94
2022-10-23T19:25:25.524Z,101267.84
2022-10-23T19:28:03.586Z,101270.34
2022-10-23T19:30:31.659Z,101277.97
2022-10-23T19:33:00.961Z,101267.94
2022-10-23T19:35:28.391Z,101266.06
2022-10-23T19:37:56.279Z,101264.69
2022-10-23T19:40:24.782Z,101266.88
2022-10-23T19:42:54.533Z,101274.69
2022-10-23T19:45:22.888Z,101263.03
2022-10-23T19:47:50.293Z,101255.44
2022-10-23T19:50:23.170Z,101256.28
2022-10-23T19:52:50.459Z,101264.44
2022-10-23T19:55:18.262Z,101259.00
2022-10-23T19:57:45.673Z,101249.22
2022-10-23T20:00:14.445Z,101255.69
2022-10-23T20:02:43.363Z,101264.94
2022-10-23T20:05:11.274Z,101258.09
2022-10-23T20:07:39.428Z,101268.34
2022-10-23T20:10:08.660Z,101266.41
2022-10-23T20:12:35.867Z,101267.72
2022-10-23T20:15:03.048Z,101271.22
2022-10-23T20:17:30.242Z,101273.94
2022-10-23T20:20:01.042Z,101279.38
2022-10-23T20:22:28.796Z,101278.81
2022-10-23T20:24:56.445Z,101278.22
2022-10-23T20:27:30.227Z,101284.38
2022-10-23T20:30:08.551Z,101274.13
2022-10-23T20:32:39.810Z,101270.59
2022-10-23T20:35:08.449Z,101279.22
2022-10-23T20:37:38.835Z,101287.84
2022-10-23T20:40:06.822Z,101290.22
2022-10-23T20:42:35.132Z,101299.41
2022-10-23T20:45:03.838Z,101294.81
2022-10-23T20:47:32.473Z,101297.94
2022-10-23T20:50:00.338Z,101304.41
2022-10-23T20:52:30.387Z,101295.91
2022-10-23T20:54:58.124Z,101304.88
2022-10-23T20:57:26.126Z,101305.13
2022-10-23T20:59:55.421Z,101303.63
2022-10-23T21:02:22.968Z,101304.38
2022-10-23T21:04:50.758Z,101298.28
2022-10-23T21:07:18.920Z,101297.78
2022-10-23T21:09:49.786Z,101297.44
2022-10-23T21:12:17.808Z,101300.66
2022-10-23T21:14:45.043Z,101296.63
2022-10-23T21:17:17.055Z,101296.88
2022-10-23T21:19:44.813Z,101296.88
2022-10-23T21:22:13.053Z,101297.69
2022-10-23T21:24:40.783Z,101312.53
2022-10-23T21:27:08.086Z,101309.91
2022-10-23T21:29:35.396Z,101318.94
2022-10-23T21:32:02.635Z,101314.09
2022-10-23T21:34:31.478Z,101321.97
2022-10-23T21:37:18.126Z,101320.34
2022-10-23T21:39:48.746Z,101324.91
2022-10-23T21:42:16.246Z,101325.66
2022-10-23T21:44:44.680Z,101317.53
2022-10-23T21:47:12.539Z,101313.16
2022-10-23T21:49:40.037Z,101311.31
2022-10-23T21:52:08.611Z,101316.13
2022-10-23T21:54:36.316Z,101313.06
2022-10-23T21:57:04.628Z,101313.06
2022-10-23T21:59:35.985Z,101307.06
2022-10-23T22:02:04.473Z,101299.19
2022-10-23T22:04:32.302Z,101309.56
2022-10-23T22:07:00.230Z,101312.19
2022-10-23T22:09:32.078Z,101298.19
2022-10-23T22:12:02.983Z,101302.44
2022-10-23T22:14:30.871Z,101298.44
2022-10-23T22:16:59.017Z,101309.84
2022-10-23T22:19:28.744Z,101311.50
2022-10-23T22:21:56.686Z,101312.34
2022-10-23T22:24:27.459Z,101310.81
2022-10-23T22:26:57.242Z,101307.91
2022-10-23T22:29:36.585Z,101295.91
2022-10-23T22:32:04.344Z,101300.03
2022-10-23T22:38:29.207Z,101303.78
2022-10-23T22:41:07.314Z,101300.63
2022-10-23T22:43:45.227Z,101299.09
2022-10-23T22:46:15.798Z,101297.34
2022-10-23T22:48:43.812Z,101292.72
2022-10-23T22:51:14.739Z,101292.38
2022-10-23T22:53:43.606Z,101293.56
2022-10-23T22:56:15.579Z,101303.69
2022-10-23T22:58:47.568Z,101304.03
2022-10-23T23:01:32.450Z,101308.50
2022-10-23T23:04:08.807Z,101321.41
2022-10-23T23:06:48.184Z,101311.41
2022-10-23T23:09:20.304Z,101320.38
2022-10-23T23:11:52.470Z,101303.31
2022-10-23T23:14:24.352Z,101307.25
2022-10-23T23:16:53.777Z,101306.38
2022-10-23T23:19:23.535Z,101301.63
2022-10-23T23:21:51.542Z,101300.19
2022-10-23T23:24:19.442Z,101300.09
2022-10-23T23:26:48.575Z,101299.31
2022-10-23T23:29:19.320Z,101301.72
2022-10-23T23:31:47.545Z,101298.78
2022-10-23T23:34:23.913Z,101301.38
2022-10-23T23:36:51.409Z,101293.38
2022-10-23T23:39:18.918Z,101294.31
2022-10-23T23:41:46.299Z,101298.09
2022-10-23T23:44:13.755Z,101294.56
2022-10-23T23:46:41.597Z,101288.78
2022-10-23T23:49:09.393Z,101288.78
2022-10-23T23:51:37.757Z,101294.09
2022-10-23T23:54:05.646Z,101294.56
2022-10-23T23:56:33.295Z,101301.97
2022-10-23T23:59:01.148Z,101295.41
